sensor_id;sensor_type;location;lat;lon;timestamp;P1;durP1;ratioP1;P2;durP2;ratioP2
13349;SDS011;6744;53.190;6.576;2024-02-26T00:02:14;9.97;;;8.97;;
13349;SDS011;6744;53.190;6.576;2024-02-26T00:04:41;9.60;;;8.70;;
13349;SDS011;6744;53.190;6.576;2024-02-26T00:07:06;10.40;;;9.40;;
13349;SDS011;6744;53.190;6.576;2024-02-26T00:09:32;9.87;;;8.87;;
13349;SDS011;6744;53.190;6.576;2024-02-26T00:12:01;10.23;;;9.23;;
13349;SDS011;6744;53.190;6.576;2024-02-26T00:14:26;12.23;;;10.73;;
13349;SDS011;6744;53.190;6.576;2024-02-26T00:16:52;10.90;;;9.80;;
13349;SDS011;6744;53.190;6.576;2024-02-26T00:19:17;12.27;;;11.07;;
13349;SDS011;6744;53.190;6.576;2024-02-26T00:21:42;13.23;;;11.80;;
13349;SDS011;6744;53.190;6.576;2024-02-26T00:24:08;12.23;;;11.03;;
13349;SDS011;6744;53.190;6.576;2024-02-26T00:26:33;13.10;;;11.80;;
13349;SDS011;6744;53.190;6.576;2024-02-26T00:28:59;13.47;;;12.17;;
13349;SDS011;6744;53.190;6.576;2024-02-26T00:31:24;13.40;;;12.10;;
13349;SDS011;6744;53.190;6.576;2024-02-26T00:33:50;14.10;;;12.67;;
13349;SDS011;6744;53.190;6.576;2024-02-26T00:36:15;14.87;;;13.37;;
13349;SDS011;6744;53.190;6.576;2024-02-26T00:38:40;13.27;;;11.87;;
13349;SDS011;6744;53.190;6.576;2024-02-26T00:41:08;13.67;;;12.17;;
13349;SDS011;6744;53.190;6.576;2024-02-26T00:43:33;14.83;;;13.27;;
13349;SDS011;6744;53.190;6.576;2024-02-26T00:45:59;16.67;;;14.13;;
13349;SDS011;6744;53.190;6.576;2024-02-26T00:48:24;12.90;;;11.60;;
13349;SDS011;6744;53.190;6.576;2024-02-26T00:50:51;15.60;;;14.03;;
13349;SDS011;6744;53.190;6.576;2024-02-26T00:53:16;13.93;;;12.53;;
13349;SDS011;6744;53.190;6.576;2024-02-26T00:55:42;15.40;;;13.80;;
13349;SDS011;6744;53.190;6.576;2024-02-26T00:58:07;15.03;;;13.43;;
13349;SDS011;6744;53.190;6.576;2024-02-26T01:00:33;12.80;;;11.60;;
13349;SDS011;6744;53.190;6.576;2024-02-26T01:02:58;13.77;;;12.37;;
13349;SDS011;6744;53.190;6.576;2024-02-26T01:05:25;13.57;;;12.17;;
13349;SDS011;6744;53.190;6.576;2024-02-26T01:07:50;13.63;;;12.23;;
13349;SDS011;6744;53.190;6.576;2024-02-26T01:10:15;13.00;;;11.77;;
13349;SDS011;6744;53.190;6.576;2024-02-26T01:12:41;11.77;;;10.67;;
13349;SDS011;6744;53.190;6.576;2024-02-26T01:15:06;11.03;;;10.00;;
13349;SDS011;6744;53.190;6.576;2024-02-26T01:17:33;12.37;;;11.17;;
13349;SDS011;6744;53.190;6.576;2024-02-26T01:19:58;10.03;;;9.13;;
13349;SDS011;6744;53.190;6.576;2024-02-26T01:22:24;11.60;;;10.60;;
13349;SDS011;6744;53.190;6.576;2024-02-26T01:24:49;11.13;;;10.13;;
13349;SDS011;6744;53.190;6.576;2024-02-26T01:27:15;11.83;;;10.67;;
13349;SDS011;6744;53.190;6.576;2024-02-26T01:29:41;10.00;;;9.10;;
13349;SDS011;6744;53.190;6.576;2024-02-26T01:32:06;11.63;;;10.53;;
13349;SDS011;6744;53.190;6.576;2024-02-26T01:34:32;10.53;;;9.53;;
13349;SDS011;6744;53.190;6.576;2024-02-26T01:36:57;9.97;;;9.07;;
13349;SDS011;6744;53.190;6.576;2024-02-26T01:39:23;10.20;;;9.20;;
13349;SDS011;6744;53.190;6.576;2024-02-26T01:41:48;9.47;;;8.67;;
13349;SDS011;6744;53.190;6.576;2024-02-26T01:44:14;9.53;;;8.63;;
13349;SDS011;6744;53.190;6.576;2024-02-26T01:46:39;8.47;;;7.67;;
13349;SDS011;6744;53.190;6.576;2024-02-26T01:49:04;8.40;;;7.60;;
13349;SDS011;6744;53.190;6.576;2024-02-26T01:51:31;8.27;;;7.47;;
13349;SDS011;6744;53.190;6.576;2024-02-26T01:53:57;8.33;;;7.53;;
13349;SDS011;6744;53.190;6.576;2024-02-26T01:56:23;8.27;;;7.47;;
13349;SDS011;6744;53.190;6.576;2024-02-26T01:58:55;7.80;;;7.10;;
13349;SDS011;6744;53.190;6.576;2024-02-26T02:01:20;8.23;;;7.53;;
13349;SDS011;6744;53.190;6.576;2024-02-26T02:03:46;8.67;;;7.87;;
13349;SDS011;6744;53.190;6.576;2024-02-26T02:06:12;8.70;;;7.90;;
13349;SDS011;6744;53.190;6.576;2024-02-26T02:08:38;8.07;;;7.30;;
13349;SDS011;6744;53.190;6.576;2024-02-26T02:11:03;8.30;;;7.50;;
13349;SDS011;6744;53.190;6.576;2024-02-26T02:13:29;7.50;;;6.80;;
13349;SDS011;6744;53.190;6.576;2024-02-26T02:15:54;7.20;;;6.60;;
13349;SDS011;6744;53.190;6.576;2024-02-26T02:18:20;8.60;;;7.80;;
13349;SDS011;6744;53.190;6.576;2024-02-26T02:20:45;7.77;;;7.07;;
13349;SDS011;6744;53.190;6.576;2024-02-26T02:23:10;7.17;;;6.57;;
13349;SDS011;6744;53.190;6.576;2024-02-26T02:25:36;7.03;;;6.43;;
13349;SDS011;6744;53.190;6.576;2024-02-26T02:28:02;6.97;;;6.27;;
13349;SDS011;6744;53.190;6.576;2024-02-26T02:30:29;7.27;;;6.57;;
13349;SDS011;6744;53.190;6.576;2024-02-26T02:32:55;7.37;;;6.77;;
13349;SDS011;6744;53.190;6.576;2024-02-26T02:35:21;7.37;;;6.70;;
13349;SDS011;6744;53.190;6.576;2024-02-26T02:37:46;6.63;;;6.03;;
13349;SDS011;6744;53.190;6.576;2024-02-26T02:40:11;6.70;;;6.10;;
13349;SDS011;6744;53.190;6.576;2024-02-26T02:42:37;6.10;;;5.60;;
13349;SDS011;6744;53.190;6.576;2024-02-26T02:45:02;6.80;;;6.10;;
13349;SDS011;6744;53.190;6.576;2024-02-26T02:47:28;7.27;;;6.57;;
13349;SDS011;6744;53.190;6.576;2024-02-26T02:49:53;5.87;;;5.37;;
13349;SDS011;6744;53.190;6.576;2024-02-26T02:52:19;5.93;;;5.43;;
13349;SDS011;6744;53.190;6.576;2024-02-26T02:54:44;6.20;;;5.70;;
13349;SDS011;6744;53.190;6.576;2024-02-26T02:57:12;5.73;;;5.23;;
13349;SDS011;6744;53.190;6.576;2024-02-26T02:59:37;5.20;;;4.80;;
13349;SDS011;6744;53.190;6.576;2024-02-26T03:02:02;5.73;;;5.23;;
13349;SDS011;6744;53.190;6.576;2024-02-26T03:04:28;5.90;;;5.30;;
13349;SDS011;6744;53.190;6.576;2024-02-26T03:06:54;5.13;;;4.73;;
13349;SDS011;6744;53.190;6.576;2024-02-26T03:09:20;4.67;;;4.27;;
13349;SDS011;6744;53.190;6.576;2024-02-26T03:11:45;4.70;;;4.30;;
13349;SDS011;6744;53.190;6.576;2024-02-26T03:14:11;4.87;;;4.47;;
13349;SDS011;6744;53.190;6.576;2024-02-26T03:16:36;4.97;;;4.57;;
13349;SDS011;6744;53.190;6.576;2024-02-26T03:19:01;5.50;;;5.00;;
13349;SDS011;6744;53.190;6.576;2024-02-26T03:21:28;5.20;;;4.70;;
13349;SDS011;6744;53.190;6.576;2024-02-26T03:23:53;5.23;;;4.63;;
13349;SDS011;6744;53.190;6.576;2024-02-26T03:26:19;4.93;;;4.53;;
13349;SDS011;6744;53.190;6.576;2024-02-26T03:28:44;4.97;;;4.57;;
13349;SDS011;6744;53.190;6.576;2024-02-26T03:31:10;4.93;;;4.53;;
13349;SDS011;6744;53.190;6.576;2024-02-26T03:33:36;4.50;;;4.10;;
13349;SDS011;6744;53.190;6.576;2024-02-26T03:36:01;4.00;;;3.30;;
13349;SDS011;6744;53.190;6.576;2024-02-26T03:38:28;4.67;;;4.27;;
13349;SDS011;6744;53.190;6.576;2024-02-26T03:40:53;4.50;;;4.10;;
13349;SDS011;6744;53.190;6.576;2024-02-26T03:43:19;4.70;;;4.30;;
13349;SDS011;6744;53.190;6.576;2024-02-26T03:45:44;4.77;;;4.37;;
13349;SDS011;6744;53.190;6.576;2024-02-26T03:48:10;4.17;;;3.83;;
13349;SDS011;6744;53.190;6.576;2024-02-26T03:50:35;4.57;;;4.17;;
13349;SDS011;6744;53.190;6.576;2024-02-26T03:53:00;4.47;;;4.03;;
13349;SDS011;6744;53.190;6.576;2024-02-26T03:55:26;4.70;;;4.30;;
13349;SDS011;6744;53.190;6.576;2024-02-26T03:57:52;5.20;;;4.73;;
13349;SDS011;6744;53.190;6.576;2024-02-26T04:00:17;5.53;;;5.03;;
13349;SDS011;6744;53.190;6.576;2024-02-26T04:02:43;4.23;;;3.83;;
13349;SDS011;6744;53.190;6.576;2024-02-26T04:05:09;3.80;;;3.50;;
13349;SDS011;6744;53.190;6.576;2024-02-26T04:07:35;3.93;;;3.50;;
13349;SDS011;6744;53.190;6.576;2024-02-26T04:10:01;4.23;;;3.77;;
13349;SDS011;6744;53.190;6.576;2024-02-26T04:12:29;4.37;;;3.97;;
13349;SDS011;6744;53.190;6.576;2024-02-26T04:14:55;4.23;;;3.83;;
13349;SDS011;6744;53.190;6.576;2024-02-26T04:17:20;4.37;;;3.97;;
13349;SDS011;6744;53.190;6.576;2024-02-26T04:19:46;4.70;;;4.00;;
13349;SDS011;6744;53.190;6.576;2024-02-26T04:22:11;4.70;;;3.80;;
13349;SDS011;6744;53.190;6.576;2024-02-26T04:24:37;3.23;;;3.03;;
13349;SDS011;6744;53.190;6.576;2024-02-26T04:27:02;4.20;;;3.80;;
13349;SDS011;6744;53.190;6.576;2024-02-26T04:29:28;4.00;;;3.60;;
13349;SDS011;6744;53.190;6.576;2024-02-26T04:31:53;3.13;;;2.83;;
13349;SDS011;6744;53.190;6.576;2024-02-26T04:34:19;4.13;;;3.73;;
13349;SDS011;6744;53.190;6.576;2024-02-26T04:36:44;5.40;;;3.43;;
13349;SDS011;6744;53.190;6.576;2024-02-26T04:39:09;3.47;;;3.17;;
13349;SDS011;6744;53.190;6.576;2024-02-26T04:41:35;3.70;;;3.20;;
13349;SDS011;6744;53.190;6.576;2024-02-26T04:44:01;5.43;;;3.90;;
13349;SDS011;6744;53.190;6.576;2024-02-26T04:46:27;4.00;;;3.60;;
13349;SDS011;6744;53.190;6.576;2024-02-26T04:48:53;4.13;;;3.73;;
13349;SDS011;6744;53.190;6.576;2024-02-26T04:51:19;2.97;;;2.77;;
13349;SDS011;6744;53.190;6.576;2024-02-26T04:53:44;3.00;;;2.70;;
13349;SDS011;6744;53.190;6.576;2024-02-26T04:56:10;3.27;;;3.00;;
13349;SDS011;6744;53.190;6.576;2024-02-26T04:58:35;3.83;;;3.53;;
13349;SDS011;6744;53.190;6.576;2024-02-26T05:01:01;3.17;;;2.90;;
13349;SDS011;6744;53.190;6.576;2024-02-26T05:03:26;3.60;;;2.67;;
13349;SDS011;6744;53.190;6.576;2024-02-26T05:05:51;4.87;;;3.03;;
13349;SDS011;6744;53.190;6.576;2024-02-26T05:08:17;3.30;;;3.00;;
13349;SDS011;6744;53.190;6.576;2024-02-26T05:10:44;3.40;;;2.97;;
13349;SDS011;6744;53.190;6.576;2024-02-26T05:13:10;2.97;;;2.77;;
13349;SDS011;6744;53.190;6.576;2024-02-26T05:15:36;3.23;;;2.90;;
13349;SDS011;6744;53.190;6.576;2024-02-26T05:18:02;3.40;;;2.90;;
13349;SDS011;6744;53.190;6.576;2024-02-26T05:20:28;2.60;;;2.40;;
13349;SDS011;6744;53.190;6.576;2024-02-26T05:22:53;2.50;;;2.30;;
13349;SDS011;6744;53.190;6.576;2024-02-26T05:25:19;3.00;;;2.70;;
13349;SDS011;6744;53.190;6.576;2024-02-26T05:27:44;3.03;;;2.70;;
13349;SDS011;6744;53.190;6.576;2024-02-26T05:30:11;2.97;;;2.50;;
13349;SDS011;6744;53.190;6.576;2024-02-26T05:32:37;2.60;;;2.40;;
13349;SDS011;6744;53.190;6.576;2024-02-26T05:35:02;2.60;;;1.80;;
13349;SDS011;6744;53.190;6.576;2024-02-26T05:37:29;2.50;;;2.30;;
13349;SDS011;6744;53.190;6.576;2024-02-26T05:39:54;2.63;;;2.43;;
13349;SDS011;6744;53.190;6.576;2024-02-26T05:42:20;2.20;;;2.00;;
13349;SDS011;6744;53.190;6.576;2024-02-26T05:44:45;2.30;;;2.10;;
13349;SDS011;6744;53.190;6.576;2024-02-26T05:47:11;2.97;;;2.77;;
13349;SDS011;6744;53.190;6.576;2024-02-26T05:49:37;2.70;;;2.30;;
13349;SDS011;6744;53.190;6.576;2024-02-26T05:52:02;2.80;;;2.47;;
13349;SDS011;6744;53.190;6.576;2024-02-26T05:54:28;2.40;;;2.20;;
13349;SDS011;6744;53.190;6.576;2024-02-26T05:56:53;2.90;;;2.10;;
13349;SDS011;6744;53.190;6.576;2024-02-26T05:59:19;1.80;;;1.70;;
13349;SDS011;6744;53.190;6.576;2024-02-26T06:01:44;2.23;;;2.00;;
13349;SDS011;6744;53.190;6.576;2024-02-26T06:04:10;2.13;;;2.00;;
13349;SDS011;6744;53.190;6.576;2024-02-26T06:06:37;2.13;;;1.90;;
13349;SDS011;6744;53.190;6.576;2024-02-26T06:09:02;1.90;;;1.80;;
13349;SDS011;6744;53.190;6.576;2024-02-26T06:11:30;2.40;;;2.20;;
13349;SDS011;6744;53.190;6.576;2024-02-26T06:13:56;2.90;;;2.20;;
13349;SDS011;6744;53.190;6.576;2024-02-26T06:16:21;2.83;;;2.30;;
13349;SDS011;6744;53.190;6.576;2024-02-26T06:18:47;2.20;;;2.00;;
13349;SDS011;6744;53.190;6.576;2024-02-26T06:21:12;2.00;;;1.87;;
13349;SDS011;6744;53.190;6.576;2024-02-26T06:23:38;2.30;;;2.10;;
13349;SDS011;6744;53.190;6.576;2024-02-26T06:26:06;2.20;;;2.00;;
13349;SDS011;6744;53.190;6.576;2024-02-26T06:28:32;2.83;;;2.00;;
13349;SDS011;6744;53.190;6.576;2024-02-26T06:30:59;2.57;;;2.37;;
13349;SDS011;6744;53.190;6.576;2024-02-26T06:33:24;2.47;;;2.17;;
13349;SDS011;6744;53.190;6.576;2024-02-26T06:35:50;2.20;;;2.00;;
13349;SDS011;6744;53.190;6.576;2024-02-26T06:38:15;2.90;;;2.70;;
13349;SDS011;6744;53.190;6.576;2024-02-26T06:40:42;2.20;;;2.00;;
13349;SDS011;6744;53.190;6.576;2024-02-26T06:43:09;3.37;;;2.23;;
13349;SDS011;6744;53.190;6.576;2024-02-26T06:45:34;2.50;;;2.20;;
13349;SDS011;6744;53.190;6.576;2024-02-26T06:47:59;2.73;;;2.53;;
13349;SDS011;6744;53.190;6.576;2024-02-26T06:50:25;2.30;;;2.20;;
13349;SDS011;6744;53.190;6.576;2024-02-26T06:52:51;2.93;;;2.40;;
13349;SDS011;6744;53.190;6.576;2024-02-26T06:55:16;2.77;;;2.57;;
13349;SDS011;6744;53.190;6.576;2024-02-26T06:57:42;2.40;;;2.20;;
13349;SDS011;6744;53.190;6.576;2024-02-26T07:00:07;2.53;;;2.33;;
13349;SDS011;6744;53.190;6.576;2024-02-26T07:02:33;2.70;;;2.43;;
13349;SDS011;6744;53.190;6.576;2024-02-26T07:04:59;3.17;;;2.00;;
13349;SDS011;6744;53.190;6.576;2024-02-26T07:07:24;2.57;;;2.33;;
13349;SDS011;6744;53.190;6.576;2024-02-26T07:09:50;2.70;;;2.30;;
13349;SDS011;6744;53.190;6.576;2024-02-26T07:12:15;2.73;;;2.20;;
13349;SDS011;6744;53.190;6.576;2024-02-26T07:14:41;2.60;;;2.20;;
13349;SDS011;6744;53.190;6.576;2024-02-26T07:17:07;4.00;;;2.10;;
13349;SDS011;6744;53.190;6.576;2024-02-26T07:19:33;2.97;;;2.20;;
13349;SDS011;6744;53.190;6.576;2024-02-26T07:21:58;2.90;;;2.30;;
13349;SDS011;6744;53.190;6.576;2024-02-26T07:24:26;2.10;;;1.90;;
13349;SDS011;6744;53.190;6.576;2024-02-26T07:26:52;2.30;;;2.10;;
13349;SDS011;6744;53.190;6.576;2024-02-26T07:29:19;2.07;;;1.97;;
13349;SDS011;6744;53.190;6.576;2024-02-26T07:31:45;1.80;;;1.70;;
13349;SDS011;6744;53.190;6.576;2024-02-26T07:34:10;2.00;;;1.80;;
13349;SDS011;6744;53.190;6.576;2024-02-26T07:36:36;2.00;;;1.90;;
13349;SDS011;6744;53.190;6.576;2024-02-26T07:39:01;2.60;;;2.00;;
13349;SDS011;6744;53.190;6.576;2024-02-26T07:41:27;2.20;;;2.00;;
13349;SDS011;6744;53.190;6.576;2024-02-26T07:43:52;2.40;;;1.77;;
13349;SDS011;6744;53.190;6.576;2024-02-26T07:46:17;1.87;;;1.73;;
13349;SDS011;6744;53.190;6.576;2024-02-26T07:48:43;2.70;;;1.80;;
13349;SDS011;6744;53.190;6.576;2024-02-26T07:51:08;2.33;;;2.13;;
13349;SDS011;6744;53.190;6.576;2024-02-26T07:53:34;1.70;;;1.60;;
13349;SDS011;6744;53.190;6.576;2024-02-26T07:55:59;2.10;;;1.90;;
13349;SDS011;6744;53.190;6.576;2024-02-26T07:58:25;1.80;;;1.70;;
13349;SDS011;6744;53.190;6.576;2024-02-26T08:00:50;1.50;;;1.40;;
13349;SDS011;6744;53.190;6.576;2024-02-26T08:03:15;1.97;;;1.40;;
13349;SDS011;6744;53.190;6.576;2024-02-26T08:05:41;1.87;;;1.60;;
13349;SDS011;6744;53.190;6.576;2024-02-26T08:08:08;2.33;;;1.50;;
13349;SDS011;6744;53.190;6.576;2024-02-26T08:10:34;1.90;;;1.73;;
13349;SDS011;6744;53.190;6.576;2024-02-26T08:12:59;1.60;;;1.50;;
13349;SDS011;6744;53.190;6.576;2024-02-26T08:15:36;1.60;;;1.50;;
13349;SDS011;6744;53.190;6.576;2024-02-26T08:18:04;2.07;;;1.60;;
13349;SDS011;6744;53.190;6.576;2024-02-26T08:20:30;1.53;;;1.30;;
13349;SDS011;6744;53.190;6.576;2024-02-26T08:22:56;1.70;;;1.60;;
13349;SDS011;6744;53.190;6.576;2024-02-26T08:25:22;2.13;;;1.40;;
13349;SDS011;6744;53.190;6.576;2024-02-26T08:27:48;1.90;;;1.50;;
13349;SDS011;6744;53.190;6.576;2024-02-26T08:30:14;2.97;;;1.40;;
13349;SDS011;6744;53.190;6.576;2024-02-26T08:32:45;1.83;;;1.50;;
13349;SDS011;6744;53.190;6.576;2024-02-26T08:35:13;2.73;;;1.23;;
13349;SDS011;6744;53.190;6.576;2024-02-26T08:37:38;1.47;;;1.37;;
13349;SDS011;6744;53.190;6.576;2024-02-26T08:40:04;1.37;;;1.27;;
13349;SDS011;6744;53.190;6.576;2024-02-26T08:42:31;1.40;;;1.30;;
13349;SDS011;6744;53.190;6.576;2024-02-26T08:44:56;2.83;;;1.60;;
13349;SDS011;6744;53.190;6.576;2024-02-26T08:47:25;1.40;;;1.30;;
13349;SDS011;6744;53.190;6.576;2024-02-26T08:49:50;1.40;;;1.30;;
13349;SDS011;6744;53.190;6.576;2024-02-26T08:52:16;2.10;;;1.57;;
13349;SDS011;6744;53.190;6.576;2024-02-26T08:54:41;1.60;;;1.37;;
13349;SDS011;6744;53.190;6.576;2024-02-26T08:57:07;1.70;;;1.60;;
13349;SDS011;6744;53.190;6.576;2024-02-26T08:59:32;2.17;;;1.50;;
13349;SDS011;6744;53.190;6.576;2024-02-26T09:01:58;1.93;;;1.40;;
13349;SDS011;6744;53.190;6.576;2024-02-26T09:04:23;2.67;;;1.57;;
13349;SDS011;6744;53.190;6.576;2024-02-26T09:06:49;2.00;;;1.40;;
13349;SDS011;6744;53.190;6.576;2024-02-26T09:09:14;1.80;;;1.70;;
13349;SDS011;6744;53.190;6.576;2024-02-26T09:11:39;1.70;;;1.50;;
13349;SDS011;6744;53.190;6.576;2024-02-26T09:14:05;1.63;;;1.30;;
13349;SDS011;6744;53.190;6.576;2024-02-26T09:16:30;2.40;;;1.80;;
13349;SDS011;6744;53.190;6.576;2024-02-26T09:18:56;1.50;;;1.40;;
13349;SDS011;6744;53.190;6.576;2024-02-26T09:21:22;2.27;;;1.53;;
13349;SDS011;6744;53.190;6.576;2024-02-26T09:23:51;1.80;;;1.70;;
13349;SDS011;6744;53.190;6.576;2024-02-26T09:26:17;1.50;;;1.40;;
13349;SDS011;6744;53.190;6.576;2024-02-26T09:28:42;2.50;;;1.53;;
13349;SDS011;6744;53.190;6.576;2024-02-26T09:31:08;2.10;;;1.37;;
13349;SDS011;6744;53.190;6.576;2024-02-26T09:33:33;1.33;;;1.23;;
13349;SDS011;6744;53.190;6.576;2024-02-26T09:35:59;2.70;;;1.70;;
13349;SDS011;6744;53.190;6.576;2024-02-26T09:38:26;3.37;;;1.40;;
13349;SDS011;6744;53.190;6.576;2024-02-26T09:40:52;1.93;;;1.57;;
13349;SDS011;6744;53.190;6.576;2024-02-26T09:43:17;1.77;;;1.53;;
13349;SDS011;6744;53.190;6.576;2024-02-26T09:45:47;1.60;;;1.50;;
13349;SDS011;6744;53.190;6.576;2024-02-26T09:48:12;1.83;;;1.57;;
13349;SDS011;6744;53.190;6.576;2024-02-26T09:50:41;1.57;;;1.47;;
13349;SDS011;6744;53.190;6.576;2024-02-26T09:53:08;2.63;;;1.90;;
13349;SDS011;6744;53.190;6.576;2024-02-26T09:55:35;2.50;;;1.90;;
13349;SDS011;6744;53.190;6.576;2024-02-26T09:58:01;1.70;;;1.53;;
13349;SDS011;6744;53.190;6.576;2024-02-26T10:00:27;2.43;;;1.90;;
13349;SDS011;6744;53.190;6.576;2024-02-26T10:02:57;1.80;;;1.67;;
13349;SDS011;6744;53.190;6.576;2024-02-26T10:05:23;2.07;;;1.60;;
13349;SDS011;6744;53.190;6.576;2024-02-26T10:07:50;1.80;;;1.30;;
13349;SDS011;6744;53.190;6.576;2024-02-26T10:10:15;1.93;;;1.67;;
13349;SDS011;6744;53.190;6.576;2024-02-26T10:12:42;2.30;;;1.67;;
13349;SDS011;6744;53.190;6.576;2024-02-26T10:15:08;1.37;;;1.27;;
13349;SDS011;6744;53.190;6.576;2024-02-26T10:17:33;1.40;;;1.30;;
13349;SDS011;6744;53.190;6.576;2024-02-26T10:20:15;3.20;;;1.70;;
13349;SDS011;6744;53.190;6.576;2024-02-26T10:22:42;1.30;;;1.23;;
13349;SDS011;6744;53.190;6.576;2024-02-26T10:25:08;1.40;;;1.30;;
13349;SDS011;6744;53.190;6.576;2024-02-26T10:27:34;1.73;;;1.40;;
13349;SDS011;6744;53.190;6.576;2024-02-26T10:30:04;2.37;;;1.40;;
13349;SDS011;6744;53.190;6.576;2024-02-26T10:32:30;1.67;;;1.57;;
13349;SDS011;6744;53.190;6.576;2024-02-26T10:34:57;1.70;;;1.60;;
13349;SDS011;6744;53.190;6.576;2024-02-26T10:37:22;2.37;;;1.60;;
13349;SDS011;6744;53.190;6.576;2024-02-26T10:39:48;2.90;;;1.50;;
13349;SDS011;6744;53.190;6.576;2024-02-26T10:42:13;1.80;;;1.70;;
13349;SDS011;6744;53.190;6.576;2024-02-26T10:44:40;1.77;;;1.50;;
13349;SDS011;6744;53.190;6.576;2024-02-26T10:47:07;1.60;;;1.50;;
13349;SDS011;6744;53.190;6.576;2024-02-26T10:49:34;1.50;;;1.40;;
13349;SDS011;6744;53.190;6.576;2024-02-26T10:52:00;2.60;;;1.30;;
13349;SDS011;6744;53.190;6.576;2024-02-26T10:54:29;1.50;;;1.40;;
13349;SDS011;6744;53.190;6.576;2024-02-26T10:56:55;1.97;;;1.27;;
13349;SDS011;6744;53.190;6.576;2024-02-26T10:59:22;2.87;;;1.47;;
13349;SDS011;6744;53.190;6.576;2024-02-26T11:01:48;3.20;;;1.70;;
13349;SDS011;6744;53.190;6.576;2024-02-26T11:04:15;1.50;;;1.23;;
13349;SDS011;6744;53.190;6.576;2024-02-26T11:06:41;1.37;;;0.97;;
13349;SDS011;6744;53.190;6.576;2024-02-26T11:09:07;1.90;;;1.40;;
13349;SDS011;6744;53.190;6.576;2024-02-26T11:11:33;1.23;;;1.13;;
13349;SDS011;6744;53.190;6.576;2024-02-26T11:14:00;1.63;;;1.53;;
13349;SDS011;6744;53.190;6.576;2024-02-26T11:16:26;1.50;;;1.40;;
13349;SDS011;6744;53.190;6.576;2024-02-26T11:18:53;1.67;;;1.53;;
13349;SDS011;6744;53.190;6.576;2024-02-26T11:21:21;2.07;;;1.60;;
13349;SDS011;6744;53.190;6.576;2024-02-26T11:23:56;2.70;;;1.43;;
13349;SDS011;6744;53.190;6.576;2024-02-26T11:26:21;1.67;;;1.57;;
13349;SDS011;6744;53.190;6.576;2024-02-26T11:28:48;2.27;;;1.70;;
13349;SDS011;6744;53.190;6.576;2024-02-26T11:31:14;2.13;;;1.90;;
13349;SDS011;6744;53.190;6.576;2024-02-26T11:33:40;2.10;;;1.73;;
13349;SDS011;6744;53.190;6.576;2024-02-26T11:36:09;1.90;;;1.80;;
13349;SDS011;6744;53.190;6.576;2024-02-26T11:38:36;2.33;;;2.13;;
13349;SDS011;6744;53.190;6.576;2024-02-26T11:41:01;2.30;;;2.10;;
13349;SDS011;6744;53.190;6.576;2024-02-26T11:44:09;3.17;;;2.03;;
13349;SDS011;6744;53.190;6.576;2024-02-26T11:51:52;3.27;;;2.47;;
13349;SDS011;6744;53.190;6.576;2024-02-26T11:57:40;3.30;;;2.40;;
13349;SDS011;6744;53.190;6.576;2024-02-26T12:02:38;2.83;;;2.60;;
13349;SDS011;6744;53.190;6.576;2024-02-26T12:05:08;3.27;;;2.70;;
13349;SDS011;6744;53.190;6.576;2024-02-26T12:07:44;2.97;;;2.77;;
13349;SDS011;6744;53.190;6.576;2024-02-26T12:10:23;4.50;;;2.90;;
13349;SDS011;6744;53.190;6.576;2024-02-26T12:12:54;3.87;;;2.67;;
13349;SDS011;6744;53.190;6.576;2024-02-26T12:15:44;3.30;;;2.73;;
13349;SDS011;6744;53.190;6.576;2024-02-26T12:18:11;2.90;;;2.60;;
13349;SDS011;6744;53.190;6.576;2024-02-26T12:20:42;4.00;;;3.60;;
13349;SDS011;6744;53.190;6.576;2024-02-26T12:23:09;4.60;;;3.47;;
13349;SDS011;6744;53.190;6.576;2024-02-26T12:25:39;3.73;;;3.20;;
13349;SDS011;6744;53.190;6.576;2024-02-26T12:28:05;3.53;;;3.23;;
13349;SDS011;6744;53.190;6.576;2024-02-26T12:30:32;4.30;;;3.37;;
13349;SDS011;6744;53.190;6.576;2024-02-26T12:32:59;3.93;;;3.23;;
13349;SDS011;6744;53.190;6.576;2024-02-26T12:35:26;3.87;;;3.10;;
13349;SDS011;6744;53.190;6.576;2024-02-26T12:37:52;3.53;;;3.23;;
13349;SDS011;6744;53.190;6.576;2024-02-26T12:40:18;3.90;;;3.50;;
13349;SDS011;6744;53.190;6.576;2024-02-26T12:42:44;3.80;;;3.50;;
13349;SDS011;6744;53.190;6.576;2024-02-26T12:45:11;4.40;;;3.83;;
13349;SDS011;6744;53.190;6.576;2024-02-26T12:47:40;4.20;;;3.70;;
13349;SDS011;6744;53.190;6.576;2024-02-26T12:50:07;3.97;;;3.67;;
13349;SDS011;6744;53.190;6.576;2024-02-26T12:52:40;4.23;;;3.83;;
13349;SDS011;6744;53.190;6.576;2024-02-26T12:55:08;5.47;;;4.50;;
13349;SDS011;6744;53.190;6.576;2024-02-26T12:57:35;4.03;;;3.73;;
13349;SDS011;6744;53.190;6.576;2024-02-26T13:00:02;5.33;;;4.43;;
13349;SDS011;6744;53.190;6.576;2024-02-26T13:02:31;3.87;;;3.53;;
13349;SDS011;6744;53.190;6.576;2024-02-26T13:04:57;5.40;;;4.13;;
13349;SDS011;6744;53.190;6.576;2024-02-26T13:07:23;4.40;;;3.80;;
13349;SDS011;6744;53.190;6.576;2024-02-26T13:09:48;3.37;;;3.07;;
13349;SDS011;6744;53.190;6.576;2024-02-26T13:12:15;4.13;;;3.73;;
13349;SDS011;6744;53.190;6.576;2024-02-26T13:14:41;4.30;;;3.87;;
13349;SDS011;6744;53.190;6.576;2024-02-26T13:17:06;5.73;;;4.30;;
13349;SDS011;6744;53.190;6.576;2024-02-26T13:19:32;4.60;;;4.20;;
13349;SDS011;6744;53.190;6.576;2024-02-26T13:22:04;5.20;;;4.73;;
13349;SDS011;6744;53.190;6.576;2024-02-26T13:24:31;4.90;;;4.40;;
13349;SDS011;6744;53.190;6.576;2024-02-26T13:26:57;4.73;;;4.33;;
13349;SDS011;6744;53.190;6.576;2024-02-26T13:29:22;4.73;;;4.33;;
13349;SDS011;6744;53.190;6.576;2024-02-26T13:31:59;4.50;;;4.10;;
13349;SDS011;6744;53.190;6.576;2024-02-26T13:34:29;4.53;;;4.13;;
13349;SDS011;6744;53.190;6.576;2024-02-26T13:36:55;4.53;;;3.60;;
13349;SDS011;6744;53.190;6.576;2024-02-26T13:39:24;4.60;;;4.03;;
13349;SDS011;6744;53.190;6.576;2024-02-26T13:41:50;5.47;;;4.20;;
13349;SDS011;6744;53.190;6.576;2024-02-26T13:44:16;4.80;;;4.40;;
13349;SDS011;6744;53.190;6.576;2024-02-26T13:46:42;5.17;;;4.13;;
13349;SDS011;6744;53.190;6.576;2024-02-26T13:49:08;4.97;;;4.57;;
13349;SDS011;6744;53.190;6.576;2024-02-26T13:51:34;4.97;;;4.47;;
13349;SDS011;6744;53.190;6.576;2024-02-26T13:54:01;5.30;;;4.80;;
13349;SDS011;6744;53.190;6.576;2024-02-26T13:56:26;5.20;;;4.70;;
13349;SDS011;6744;53.190;6.576;2024-02-26T13:58:52;5.73;;;5.10;;
13349;SDS011;6744;53.190;6.576;2024-02-26T14:01:17;5.27;;;4.00;;
13349;SDS011;6744;53.190;6.576;2024-02-26T14:03:43;5.20;;;4.70;;
13349;SDS011;6744;53.190;6.576;2024-02-26T14:06:08;5.10;;;4.60;;
13349;SDS011;6744;53.190;6.576;2024-02-26T14:08:34;5.27;;;4.77;;
13349;SDS011;6744;53.190;6.576;2024-02-26T14:10:59;5.17;;;4.70;;
13349;SDS011;6744;53.190;6.576;2024-02-26T14:13:25;4.93;;;4.53;;
13349;SDS011;6744;53.190;6.576;2024-02-26T14:15:51;5.57;;;5.07;;
13349;SDS011;6744;53.190;6.576;2024-02-26T14:18:16;6.00;;;5.27;;
13349;SDS011;6744;53.190;6.576;2024-02-26T14:20:41;4.70;;;4.30;;
13349;SDS011;6744;53.190;6.576;2024-02-26T14:23:07;6.10;;;5.50;;
13349;SDS011;6744;53.190;6.576;2024-02-26T14:25:33;6.10;;;5.50;;
13349;SDS011;6744;53.190;6.576;2024-02-26T14:27:59;6.17;;;5.37;;
13349;SDS011;6744;53.190;6.576;2024-02-26T14:30:25;5.77;;;5.17;;
13349;SDS011;6744;53.190;6.576;2024-02-26T14:32:51;5.77;;;4.57;;
13349;SDS011;6744;53.190;6.576;2024-02-26T14:35:16;5.27;;;4.73;;
13349;SDS011;6744;53.190;6.576;2024-02-26T14:37:42;4.47;;;4.07;;
13349;SDS011;6744;53.190;6.576;2024-02-26T14:40:11;4.77;;;4.30;;
13349;SDS011;6744;53.190;6.576;2024-02-26T14:42:36;4.53;;;4.13;;
13349;SDS011;6744;53.190;6.576;2024-02-26T14:45:02;4.60;;;4.20;;
13349;SDS011;6744;53.190;6.576;2024-02-26T14:47:29;5.83;;;4.70;;
13349;SDS011;6744;53.190;6.576;2024-02-26T14:49:55;5.83;;;4.80;;
13349;SDS011;6744;53.190;6.576;2024-02-26T14:52:20;4.87;;;4.10;;
13349;SDS011;6744;53.190;6.576;2024-02-26T14:54:46;5.47;;;4.70;;
13349;SDS011;6744;53.190;6.576;2024-02-26T14:57:11;5.50;;;4.00;;
13349;SDS011;6744;53.190;6.576;2024-02-26T14:59:37;4.23;;;3.90;;
13349;SDS011;6744;53.190;6.576;2024-02-26T15:02:03;4.40;;;4.00;;
13349;SDS011;6744;53.190;6.576;2024-02-26T15:04:28;4.20;;;3.80;;